createdAt,value
2024-03-19T00:01:05.605Z,16
2024-03-19T00:16:05.716Z,14
2024-03-19T00:31:05.358Z,14
2024-03-19T00:46:05.747Z,13
2024-03-19T01:01:05.516Z,14
2024-03-19T01:16:05.833Z,14
2024-03-19T01:31:04.895Z,14
2024-03-19T01:46:05.928Z,15
2024-03-19T02:01:05.312Z,13
2024-03-19T02:16:05.608Z,14
2024-03-19T02:31:05.338Z,15
2024-03-19T02:46:05.847Z,15
2024-03-19T03:01:04.589Z,15
2024-03-19T03:16:04.970Z,16
2024-03-19T03:31:05.570Z,16
2024-03-19T03:46:05.541Z,17
2024-03-19T04:01:05.069Z,17
2024-03-19T04:16:05.558Z,18
2024-03-19T04:31:04.771Z,18
2024-03-19T04:46:05.630Z,18
2024-03-19T05:01:05.352Z,20
2024-03-19T05:16:05.399Z,20
2024-03-19T05:31:05.819Z,22
2024-03-19T05:46:05.235Z,27
2024-03-19T06:01:05.225Z,23
2024-03-19T06:16:04.859Z,23
2024-03-19T06:31:05.004Z,23
2024-03-19T06:46:04.690Z,22
2024-03-19T07:01:05.270Z,21
2024-03-19T07:16:05.496Z,15
2024-03-19T07:31:04.868Z,11
2024-03-19T07:46:05.359Z,11
2024-03-19T08:01:04.834Z,10
2024-03-19T08:16:04.550Z,10
2024-03-19T08:31:06.371Z,8
2024-03-19T08:46:04.920Z,7
2024-03-19T09:01:05.112Z,11
2024-03-19T09:16:05.135Z,12
2024-03-19T09:31:05.868Z,8
2024-03-19T09:46:04.772Z,9
2024-03-19T10:01:05.805Z,7
2024-03-19T10:16:04.590Z,5
2024-03-19T10:31:05.895Z,4
2024-03-19T10:46:05.883Z,4
2024-03-19T11:01:07.232Z,7
2024-03-19T11:16:05.861Z,7
2024-03-19T11:31:05.602Z,8
2024-03-19T11:46:05.585Z,6
2024-03-19T12:01:04.673Z,4
2024-03-19T12:16:04.655Z,5
2024-03-19T12:31:05.096Z,6
2024-03-19T12:46:04.462Z,6
2024-03-19T13:01:05.262Z,6
2024-03-19T13:16:04.866Z,4
2024-03-19T13:31:05.817Z,5
2024-03-19T13:46:06.331Z,5
2024-03-19T14:01:04.874Z,6
2024-03-19T14:16:05.850Z,6
2024-03-19T14:31:05.008Z,5
2024-03-19T14:46:05.147Z,6
2024-03-19T15:01:05.548Z,6
2024-03-19T15:16:05.370Z,7
2024-03-19T15:31:05.740Z,9
2024-03-19T15:46:04.983Z,12
2024-03-19T16:01:05.247Z,16
2024-03-19T16:16:05.750Z,9
2024-03-19T16:31:04.866Z,9
2024-03-19T16:46:05.765Z,9
2024-03-19T17:01:05.113Z,12
2024-03-19T17:16:05.546Z,17
2024-03-19T17:31:05.085Z,27
2024-03-19T17:46:05.040Z,18
2024-03-19T18:01:05.978Z,24
2024-03-19T18:16:05.379Z,25
2024-03-19T18:31:05.296Z,27
2024-03-19T18:46:04.409Z,27
2024-03-19T19:01:05.227Z,26
2024-03-19T19:16:05.213Z,27
2024-03-19T19:31:04.935Z,23
2024-03-19T19:46:05.451Z,27
2024-03-19T20:01:05.160Z,37
2024-03-19T20:16:06.936Z,35
2024-03-19T20:31:06.488Z,38
2024-03-19T20:46:04.752Z,43
2024-03-19T21:01:05.437Z,39
2024-03-19T21:16:04.953Z,34
2024-03-19T21:31:05.154Z,31
2024-03-19T21:46:05.204Z,35
2024-03-19T22:01:05.743Z,37
2024-03-19T22:16:04.953Z,39
2024-03-19T22:31:05.246Z,39
2024-03-19T22:46:04.757Z,44
2024-03-19T23:01:04.461Z,58
2024-03-19T23:16:04.844Z,54
2024-03-19T23:31:04.996Z,51
2024-03-19T23:46:05.279Z,49
